Quick Links (Output Below):   Max & Min Temps   /   Climate Reports   /   Zone Forecasts
River Forecasts   /   Forestry Forecasts   /   Aviation Forecasts   /   Radars   /   Features

Terminal Aerodrome Forecast (Monticello)

Pick a Site:
Arkadelphia | El Dorado | Fayetteville | Fort Smith | Harrison | Highfill | Hot Springs | Jonesboro
Little Rock | Monticello | Mountain Home | Pine Bluff | Texarkana
 Forecast 

KLLQ 280611Z 2806/2906 14003KT 5SM BR SCT250
      TEMPO 2806/2808 1/2SM FG BKN002
     FM280800 13003KT 3SM BR SCT005 BKN250
      TEMPO 2808/2812 1/2SM FG VV002
     FM281500 13005KT P6SM SCT025 BKN250
     FM281800 15008KT P6SM VCTS SCT030CB SCT100 BKN250=


 Latest METARs (Observations) 
How to Decode METARs
08Z KLLQ 280753Z AUTO 00000KT 1/4SM FG VV002 20/20 A3009 RMK AO2
         SLP188 T02000200
         
07Z KLLQ 280653Z AUTO 10003KT 1/4SM FG VV002 21/21 A3010 RMK AO2
         SLP189 T02060206
         
06Z KLLQ 280553Z AUTO 15003KT 1/2SM FG VV002 21/21 A3011 RMK AO2
         SLP194 T02110211 10261 20200 402670200 50005
         
05Z KLLQ 280453Z AUTO 00000KT 10SM CLR 21/21 A3011 RMK AO2 SLP195
         T02060206
         
04Z KLLQ 280353Z AUTO 00000KT 10SM CLR 21/21 A3011 RMK AO2 SLP193
         T02110206
         
03Z KLLQ 280253Z AUTO 11003KT 10SM CLR 22/21 A3010 RMK AO2 SLP189
         T02170211 53012
         
02Z KLLQ 280153Z AUTO 15003KT 10SM CLR 23/22 A3008 RMK AO2 SLP183
         T02280222
         
01Z KLLQ 280053Z AUTO 15003KT 10SM CLR 24/22 A3007 RMK AO2 SLP178
         T02440222
         
00Z KLLQ 272353Z AUTO 13004KT 10SM CLR 26/22 A3006 RMK AO2 SLP176
         T02610217 10267 20222 56004
         
***** Today's Observations (Above) *****


23Z KLLQ 272253Z AUTO 13006KT 10SM FEW026 26/22 A3006 RMK AO2 SLP177
         T02560217
         
***** Yesterday's Observations (Above) *****


Back to Main Page
http://www.srh.noaa.gov/lzk/qfcst.php

USA.gov is the U.S. government's official web portal to all federal, state and local government web resources and services.